OOCL Nagoya — VRFX8 — position and weather

sailwx.info

Track history (hours):
 
Tides and Currents Weather Stations Pressure Air Temp Water Temp Dewpoint Dewpoint Depression Visibility Wind Speed Wind Dir Waves Ship Positions

OOCL Nagoya

Last reported at 2015-Mar-06 06:00 UTC. Time now 2015-Mar-07 04:29 UTC.
Position N 29°24' E 131°18'.

Length 261 m; draft 10.8 m.

Type: Cargo ship. MMSI: 477627900.

Wind from 090 at 9 knots

Barometer 1008.0 mb
Air temperature 16.0 ° C
Visibility: greater than 5.4 NM
Dewpoint 14.0 ° C
Water temperature 10.0 ° C

Date/timePositionNaut miles runAvg speedWind from/ knotsBaromVisibWave heightAir tempDewpointWater temp
2015-Mar-06 06:00N 29°24' E 131°18'33517.3 090 / 91008.0 5.4 16.014.010.0
2015-Mar-05 10:33N 34°03' E 134°56'1616.5
2015-Mar-05 09:33N 34°20' E 134°59'1919.0
2015-Mar-05 08:33N 34°34' E 135°14'5 5.0
2015-Mar-05 07:33N 34°39' E 135°15'0 0.0
2015-Mar-05 06:33N 34°39' E 135°15'0 0.0
2015-Mar-05 05:33N 34°39' E 135°15'0 0.0
2015-Mar-05 04:33N 34°39' E 135°15'0 0.0
2015-Mar-05 03:33N 34°39' E 135°15'0 0.0
2015-Mar-05 02:33N 34°39' E 135°15'0 0.0
2015-Mar-05 01:27N 34°39' E 135°15'0 0.0
2015-Mar-05 00:27N 34°39' E 135°15'0 0.0
2015-Mar-04 23:33N 34°39' E 135°15'0 0.0
2015-Mar-04 22:33N 34°39' E 135°15'8 8.4
2015-Mar-04 21:33N 34°31' E 135°12'1918.5
2015-Mar-04 20:33N 34°16' E 134°59'1212.1
2015-Mar-04 19:34N 34°04' E 134°58'243 4.9
2015-Mar-02 18:13N 35°06' E 139°44'812.3
2015-Mar-02 17:33N 35°14' E 139°46'1212.3
2015-Mar-02 16:33N 35°26' E 139°45'1010.3
2015-Mar-02 15:33N 35°36' E 139°47'0 0.2
2015-Mar-02 14:33N 35°36' E 139°47'0 0.0
2015-Mar-02 13:16N 35°36' E 139°47'0 0.0
2015-Mar-02 10:10N 35°36' E 139°47'0 0.0
2015-Mar-02 09:22N 35°36' E 139°47'0 0.0
2015-Mar-02 06:28N 35°36' E 139°47'0 0.0
2015-Mar-02 05:16N 35°36' E 139°47'0 0.0
2015-Mar-02 04:04N 35°36' E 139°47'1 1.6
2015-Mar-02 03:33N 35°35' E 139°47'8 8.4
2015-Mar-02 02:33N 35°27' E 139°50'1211.8
2015-Mar-02 01:34N 35°16' E 139°47'1010.4
2015-Mar-02 00:33N 35°06' E 139°45'1818.0
2015-Mar-01 23:33N 34°55' E 139°27'  
2015-Feb-26 18:09N 24°33' E 119°19'712.2
2015-Feb-26 17:33N 24°29' E 119°13'1412.0
2015-Feb-26 16:21N 24°20' E 119°00'2611.9
2015-Feb-26 14:09N 24°04' E 118°37'711.5
2015-Feb-26 13:32N 24°00' E 118°31'1111.5
2015-Feb-26 12:33N 23°54' E 118°21'1211.8
2015-Feb-26 11:33N 23°47' E 118°10'1211.8
2015-Feb-26 10:34N 23°40' E 118°00'1412.7
2015-Feb-26 09:26N 23°31' E 117°47'1314.1
2015-Feb-26 08:32N 23°24' E 117°37'3815.4
2015-Feb-26 06:04N 22°58' E 117°06'914.8
2015-Feb-26 05:26N 22°53' E 116°57'1314.8
2015-Feb-26 04:33N 22°47' E 116°45'1714.7
2015-Feb-26 03:22N 22°40' E 116°28'11114.2
2015-Feb-25 19:33N 22°09' E 114°32'1413.9
2015-Feb-25 18:31N 22°08' E 114°17'1310.9
2015-Feb-25 17:21N 22°16' E 114°06'5 5.8
2015-Feb-25 16:33N 22°21' E 114°07'0 0.0
2015-Feb-25 15:31N 22°21' E 114°07'0 0.0
2015-Feb-25 14:28N 22°21' E 114°07'0 0.0
2015-Feb-25 13:22N 22°21' E 114°07'0 0.0
2015-Feb-25 12:28N 22°21' E 114°07'0 0.0
2015-Feb-25 11:22N 22°21' E 114°07'0 0.0
2015-Feb-25 10:22N 22°21' E 114°07'0 0.0
2015-Feb-25 09:28N 22°21' E 114°07'0 0.0
2015-Feb-25 08:22N 22°21' E 114°07'0 0.0
2015-Feb-25 07:22N 22°21' E 114°07'2 2.5
2015-Feb-25 06:34N 22°19' E 114°06'1211.5
2015-Feb-25 05:33N 22°23' E 113°54'5 4.7
2015-Feb-25 04:33N 22°28' E 113°54'0 0.0
2015-Feb-25 03:28N 22°28' E 113°54'0 0.0
2015-Feb-25 02:22N 22°28' E 113°54'0 0.0
2015-Feb-25 01:28N 22°28' E 113°54'0 0.0
2015-Feb-25 00:28N 22°28' E 113°54'0 0.0
2015-Feb-24 23:28N 22°28' E 113°54'0 0.0
2015-Feb-24 22:28N 22°28' E 113°54'0 0.0
2015-Feb-24 21:28N 22°28' E 113°54'0 0.0
2015-Feb-24 20:28N 22°28' E 113°54'0 0.0
2015-Feb-24 19:22N 22°28' E 113°54'0 0.0
2015-Feb-24 18:28N 22°28' E 113°54'0 0.0
2015-Feb-24 17:29N 22°28' E 113°54'15 7.8
2015-Feb-24 15:33N 22°18' E 114°06'1210.3
2015-Feb-24 14:26N 22°09' E 114°14'1110.5
2015-Feb-24 13:22N 22°01' E 114°23'  
Track history (hours):
 
Tides and Currents Weather Stations Pressure Air Temp Water Temp Dewpoint Dewpoint Depression Visibility Wind Speed Wind Dir Waves Ship Positions

OOCL Nagoya

Last reported at 2015-Mar-06 06:00 UTC. Time now 2015-Mar-07 04:29 UTC.
Position N 29°24' E 131°18'.

Length 261 m; draft 10.8 m.

Type: Cargo ship. MMSI: 477627900.

Wind from 090 at 9 knots

Barometer 1008.0 mb
Air temperature 16.0 ° C
Visibility: greater than 5.4 NM
Dewpoint 14.0 ° C
Water temperature 10.0 ° C

Date/timePositionNaut miles runAvg speedWind from/ knotsBaromVisibWave heightAir tempDewpointWater temp
2015-Mar-06 06:00N 29°24' E 131°18'33517.3 090 / 91008.0 5.4 16.014.010.0
2015-Mar-05 10:33N 34°03' E 134°56'1616.5
2015-Mar-05 09:33N 34°20' E 134°59'1919.0
2015-Mar-05 08:33N 34°34' E 135°14'5 5.0
2015-Mar-05 07:33N 34°39' E 135°15'0 0.0
2015-Mar-05 06:33N 34°39' E 135°15'0 0.0
2015-Mar-05 05:33N 34°39' E 135°15'0 0.0
2015-Mar-05 04:33N 34°39' E 135°15'0 0.0
2015-Mar-05 03:33N 34°39' E 135°15'0 0.0
2015-Mar-05 02:33N 34°39' E 135°15'0 0.0
2015-Mar-05 01:27N 34°39' E 135°15'0 0.0
2015-Mar-05 00:27N 34°39' E 135°15'0 0.0
2015-Mar-04 23:33N 34°39' E 135°15'0 0.0
2015-Mar-04 22:33N 34°39' E 135°15'8 8.4
2015-Mar-04 21:33N 34°31' E 135°12'1918.5
2015-Mar-04 20:33N 34°16' E 134°59'1212.1
2015-Mar-04 19:34N 34°04' E 134°58'243 4.9
2015-Mar-02 18:13N 35°06' E 139°44'812.3
2015-Mar-02 17:33N 35°14' E 139°46'1212.3
2015-Mar-02 16:33N 35°26' E 139°45'1010.3
2015-Mar-02 15:33N 35°36' E 139°47'0 0.2
2015-Mar-02 14:33N 35°36' E 139°47'0 0.0
2015-Mar-02 13:16N 35°36' E 139°47'0 0.0
2015-Mar-02 10:10N 35°36' E 139°47'0 0.0
2015-Mar-02 09:22N 35°36' E 139°47'0 0.0
2015-Mar-02 06:28N 35°36' E 139°47'0 0.0
2015-Mar-02 05:16N 35°36' E 139°47'0 0.0
2015-Mar-02 04:04N 35°36' E 139°47'1 1.6
2015-Mar-02 03:33N 35°35' E 139°47'8 8.4
2015-Mar-02 02:33N 35°27' E 139°50'1211.8
2015-Mar-02 01:34N 35°16' E 139°47'1010.4
2015-Mar-02 00:33N 35°06' E 139°45'1818.0
2015-Mar-01 23:33N 34°55' E 139°27'  
2015-Feb-26 18:09N 24°33' E 119°19'712.2
2015-Feb-26 17:33N 24°29' E 119°13'1412.0
2015-Feb-26 16:21N 24°20' E 119°00'2611.9
2015-Feb-26 14:09N 24°04' E 118°37'711.5
2015-Feb-26 13:32N 24°00' E 118°31'1111.5
2015-Feb-26 12:33N 23°54' E 118°21'1211.8
2015-Feb-26 11:33N 23°47' E 118°10'1211.8
2015-Feb-26 10:34N 23°40' E 118°00'1412.7
2015-Feb-26 09:26N 23°31' E 117°47'1314.1
2015-Feb-26 08:32N 23°24' E 117°37'3815.4
2015-Feb-26 06:04N 22°58' E 117°06'914.8
2015-Feb-26 05:26N 22°53' E 116°57'1314.8
2015-Feb-26 04:33N 22°47' E 116°45'1714.7
2015-Feb-26 03:22N 22°40' E 116°28'11114.2
2015-Feb-25 19:33N 22°09' E 114°32'1413.9
2015-Feb-25 18:31N 22°08' E 114°17'1310.9
2015-Feb-25 17:21N 22°16' E 114°06'5 5.8
2015-Feb-25 16:33N 22°21' E 114°07'0 0.0
2015-Feb-25 15:31N 22°21' E 114°07'0 0.0
2015-Feb-25 14:28N 22°21' E 114°07'0 0.0
2015-Feb-25 13:22N 22°21' E 114°07'0 0.0
2015-Feb-25 12:28N 22°21' E 114°07'0 0.0
2015-Feb-25 11:22N 22°21' E 114°07'0 0.0
2015-Feb-25 10:22N 22°21' E 114°07'0 0.0
2015-Feb-25 09:28N 22°21' E 114°07'0 0.0
2015-Feb-25 08:22N 22°21' E 114°07'0 0.0
2015-Feb-25 07:22N 22°21' E 114°07'2 2.5
2015-Feb-25 06:34N 22°19' E 114°06'1211.5
2015-Feb-25 05:33N 22°23' E 113°54'5 4.7
2015-Feb-25 04:33N 22°28' E 113°54'0 0.0
2015-Feb-25 03:28N 22°28' E 113°54'0 0.0
2015-Feb-25 02:22N 22°28' E 113°54'0 0.0
2015-Feb-25 01:28N 22°28' E 113°54'0 0.0
2015-Feb-25 00:28N 22°28' E 113°54'0 0.0
2015-Feb-24 23:28N 22°28' E 113°54'0 0.0
2015-Feb-24 22:28N 22°28' E 113°54'0 0.0
2015-Feb-24 21:28N 22°28' E 113°54'0 0.0
2015-Feb-24 20:28N 22°28' E 113°54'0 0.0
2015-Feb-24 19:22N 22°28' E 113°54'0 0.0
2015-Feb-24 18:28N 22°28' E 113°54'0 0.0
2015-Feb-24 17:29N 22°28' E 113°54'15 7.8
2015-Feb-24 15:33N 22°18' E 114°06'1210.3
2015-Feb-24 14:26N 22°09' E 114°14'1110.5
2015-Feb-24 13:22N 22°01' E 114°23'  

Dump ship's entire track history